sensor_id;sensor_type;location;lat;lon;timestamp;P1;durP1;ratioP1;P2;durP2;ratioP2
21089;SDS011;10703;51.020;6.128;2022-10-31T00:01:01;32.93;;;15.23;;
21089;SDS011;10703;51.020;6.128;2022-10-31T00:03:27;34.53;;;14.57;;
21089;SDS011;10703;51.020;6.128;2022-10-31T00:05:54;29.60;;;15.23;;
21089;SDS011;10703;51.020;6.128;2022-10-31T00:08:20;27.00;;;13.90;;
21089;SDS011;10703;51.020;6.128;2022-10-31T00:10:47;33.00;;;15.57;;
21089;SDS011;10703;51.020;6.128;2022-10-31T00:13:14;35.90;;;16.57;;
21089;SDS011;10703;51.020;6.128;2022-10-31T00:15:41;36.27;;;16.10;;
21089;SDS011;10703;51.020;6.128;2022-10-31T00:18:08;28.63;;;16.17;;
21089;SDS011;10703;51.020;6.128;2022-10-31T00:20:35;28.37;;;15.73;;
21089;SDS011;10703;51.020;6.128;2022-10-31T00:23:03;30.67;;;16.20;;
21089;SDS011;10703;51.020;6.128;2022-10-31T00:25:33;35.27;;;15.83;;
21089;SDS011;10703;51.020;6.128;2022-10-31T00:28:02;30.27;;;15.40;;
21089;SDS011;10703;51.020;6.128;2022-10-31T00:30:29;29.30;;;15.13;;
21089;SDS011;10703;51.020;6.128;2022-10-31T00:32:56;32.47;;;15.43;;
21089;SDS011;10703;51.020;6.128;2022-10-31T00:35:23;30.43;;;16.17;;
21089;SDS011;10703;51.020;6.128;2022-10-31T00:37:50;28.40;;;16.03;;
21089;SDS011;10703;51.020;6.128;2022-10-31T00:40:18;33.23;;;16.33;;
21089;SDS011;10703;51.020;6.128;2022-10-31T00:42:45;32.70;;;16.43;;
21089;SDS011;10703;51.020;6.128;2022-10-31T00:45:11;34.07;;;17.80;;
21089;SDS011;10703;51.020;6.128;2022-10-31T00:47:38;37.10;;;17.33;;
21089;SDS011;10703;51.020;6.128;2022-10-31T00:50:05;39.37;;;19.10;;
21089;SDS011;10703;51.020;6.128;2022-10-31T00:52:32;32.90;;;18.10;;
21089;SDS011;10703;51.020;6.128;2022-10-31T00:54:59;35.03;;;18.87;;
21089;SDS011;10703;51.020;6.128;2022-10-31T00:57:26;38.30;;;17.33;;
21089;SDS011;10703;51.020;6.128;2022-10-31T00:59:52;32.13;;;18.40;;
21089;SDS011;10703;51.020;6.128;2022-10-31T01:02:19;40.73;;;18.13;;
21089;SDS011;10703;51.020;6.128;2022-10-31T01:04:46;41.03;;;17.63;;
21089;SDS011;10703;51.020;6.128;2022-10-31T01:07:12;37.40;;;17.77;;
21089;SDS011;10703;51.020;6.128;2022-10-31T01:09:40;45.10;;;18.47;;
21089;SDS011;10703;51.020;6.128;2022-10-31T01:12:07;36.63;;;18.13;;
21089;SDS011;10703;51.020;6.128;2022-10-31T01:14:34;45.10;;;18.53;;
21089;SDS011;10703;51.020;6.128;2022-10-31T01:17:01;39.00;;;18.27;;
21089;SDS011;10703;51.020;6.128;2022-10-31T01:19:27;46.43;;;19.77;;
21089;SDS011;10703;51.020;6.128;2022-10-31T01:21:54;36.87;;;19.40;;
21089;SDS011;10703;51.020;6.128;2022-10-31T01:24:21;37.67;;;19.47;;
21089;SDS011;10703;51.020;6.128;2022-10-31T01:26:48;44.83;;;20.00;;
21089;SDS011;10703;51.020;6.128;2022-10-31T01:29:15;39.90;;;20.40;;
21089;SDS011;10703;51.020;6.128;2022-10-31T01:31:41;45.97;;;20.60;;
21089;SDS011;10703;51.020;6.128;2022-10-31T01:34:09;49.50;;;21.87;;
21089;SDS011;10703;51.020;6.128;2022-10-31T01:36:40;50.60;;;21.93;;
21089;SDS011;10703;51.020;6.128;2022-10-31T01:39:13;45.37;;;22.00;;
21089;SDS011;10703;51.020;6.128;2022-10-31T01:41:42;41.90;;;22.33;;
21089;SDS011;10703;51.020;6.128;2022-10-31T01:46:44;42.63;;;23.10;;
21089;SDS011;10703;51.020;6.128;2022-10-31T01:52:00;44.23;;;22.50;;
21089;SDS011;10703;51.020;6.128;2022-10-31T01:54:32;45.03;;;21.77;;
21089;SDS011;10703;51.020;6.128;2022-10-31T01:57:02;59.10;;;24.70;;
21089;SDS011;10703;51.020;6.128;2022-10-31T01:59:33;58.90;;;24.93;;
21089;SDS011;10703;51.020;6.128;2022-10-31T02:02:05;51.37;;;24.00;;
21089;SDS011;10703;51.020;6.128;2022-10-31T02:04:33;57.87;;;25.43;;
21089;SDS011;10703;51.020;6.128;2022-10-31T02:07:02;62.27;;;27.20;;
21089;SDS011;10703;51.020;6.128;2022-10-31T02:09:34;53.53;;;26.33;;
21089;SDS011;10703;51.020;6.128;2022-10-31T02:12:02;61.67;;;27.33;;
21089;SDS011;10703;51.020;6.128;2022-10-31T02:14:30;61.53;;;26.43;;
21089;SDS011;10703;51.020;6.128;2022-10-31T02:16:57;60.20;;;25.83;;
21089;SDS011;10703;51.020;6.128;2022-10-31T02:19:27;54.57;;;25.43;;
21089;SDS011;10703;51.020;6.128;2022-10-31T02:22:05;58.30;;;25.40;;
21089;SDS011;10703;51.020;6.128;2022-10-31T02:27:24;55.60;;;26.37;;
21089;SDS011;10703;51.020;6.128;2022-10-31T02:30:14;63.77;;;27.33;;
21089;SDS011;10703;51.020;6.128;2022-10-31T02:33:06;58.57;;;26.37;;
21089;SDS011;10703;51.020;6.128;2022-10-31T02:44:11;58.80;;;25.43;;
21089;SDS011;10703;51.020;6.128;2022-10-31T02:46:59;73.07;;;30.07;;
21089;SDS011;10703;51.020;6.128;2022-10-31T02:52:49;67.63;;;29.33;;
21089;SDS011;10703;51.020;6.128;2022-10-31T02:57:57;59.30;;;28.53;;
21089;SDS011;10703;51.020;6.128;2022-10-31T03:04:10;73.43;;;30.77;;
21089;SDS011;10703;51.020;6.128;2022-10-31T03:06:17;72.23;;;32.47;;
21089;SDS011;10703;51.020;6.128;2022-10-31T03:09:03;67.53;;;31.40;;
21089;SDS011;10703;51.020;6.128;2022-10-31T03:11:51;66.13;;;28.87;;
21089;SDS011;10703;51.020;6.128;2022-10-31T03:14:43;72.50;;;30.63;;
21089;SDS011;10703;51.020;6.128;2022-10-31T03:17:23;85.57;;;34.83;;
21089;SDS011;10703;51.020;6.128;2022-10-31T03:20:01;83.90;;;33.40;;
21089;SDS011;10703;51.020;6.128;2022-10-31T03:22:32;80.40;;;33.97;;
21089;SDS011;10703;51.020;6.128;2022-10-31T03:25:01;77.23;;;33.33;;
21089;SDS011;10703;51.020;6.128;2022-10-31T03:27:32;69.10;;;32.47;;
21089;SDS011;10703;51.020;6.128;2022-10-31T03:30:02;78.43;;;32.97;;
21089;SDS011;10703;51.020;6.128;2022-10-31T03:32:32;75.43;;;31.40;;
21089;SDS011;10703;51.020;6.128;2022-10-31T03:35:05;70.83;;;28.90;;
21089;SDS011;10703;51.020;6.128;2022-10-31T03:37:34;59.73;;;27.67;;
21089;SDS011;10703;51.020;6.128;2022-10-31T03:40:03;66.53;;;26.93;;
21089;SDS011;10703;51.020;6.128;2022-10-31T03:42:33;56.63;;;25.23;;
21089;SDS011;10703;51.020;6.128;2022-10-31T03:45:06;56.07;;;25.90;;
21089;SDS011;10703;51.020;6.128;2022-10-31T03:47:36;52.77;;;25.90;;
21089;SDS011;10703;51.020;6.128;2022-10-31T03:50:05;57.67;;;25.10;;
21089;SDS011;10703;51.020;6.128;2022-10-31T03:52:35;58.73;;;27.20;;
21089;SDS011;10703;51.020;6.128;2022-10-31T04:00:29;68.30;;;30.73;;
21089;SDS011;10703;51.020;6.128;2022-10-31T04:03:00;78.57;;;33.87;;
21089;SDS011;10703;51.020;6.128;2022-10-31T04:05:32;85.97;;;32.33;;
21089;SDS011;10703;51.020;6.128;2022-10-31T04:08:00;84.57;;;35.90;;
21089;SDS011;10703;51.020;6.128;2022-10-31T04:10:30;83.73;;;36.27;;
21089;SDS011;10703;51.020;6.128;2022-10-31T04:13:03;86.53;;;36.70;;
21089;SDS011;10703;51.020;6.128;2022-10-31T04:15:37;92.60;;;35.13;;
21089;SDS011;10703;51.020;6.128;2022-10-31T04:18:05;84.23;;;36.27;;
21089;SDS011;10703;51.020;6.128;2022-10-31T04:20:39;89.63;;;36.80;;
21089;SDS011;10703;51.020;6.128;2022-10-31T04:23:18;94.07;;;36.07;;
21089;SDS011;10703;51.020;6.128;2022-10-31T04:25:46;93.60;;;36.73;;
21089;SDS011;10703;51.020;6.128;2022-10-31T04:28:12;83.37;;;35.10;;
21089;SDS011;10703;51.020;6.128;2022-10-31T04:30:39;93.33;;;37.13;;
21089;SDS011;10703;51.020;6.128;2022-10-31T04:33:06;83.47;;;36.93;;
21089;SDS011;10703;51.020;6.128;2022-10-31T04:35:32;91.20;;;38.67;;
21089;SDS011;10703;51.020;6.128;2022-10-31T04:37:59;81.30;;;36.13;;
21089;SDS011;10703;51.020;6.128;2022-10-31T04:40:26;91.27;;;37.63;;
21089;SDS011;10703;51.020;6.128;2022-10-31T04:42:52;84.60;;;35.40;;
21089;SDS011;10703;51.020;6.128;2022-10-31T04:45:19;83.77;;;35.03;;
21089;SDS011;10703;51.020;6.128;2022-10-31T04:47:46;81.97;;;34.90;;
21089;SDS011;10703;51.020;6.128;2022-10-31T04:50:13;81.63;;;34.63;;
21089;SDS011;10703;51.020;6.128;2022-10-31T04:52:40;77.40;;;33.33;;
21089;SDS011;10703;51.020;6.128;2022-10-31T04:55:08;81.73;;;33.60;;
21089;SDS011;10703;51.020;6.128;2022-10-31T04:57:40;83.33;;;33.97;;
21089;SDS011;10703;51.020;6.128;2022-10-31T05:00:11;77.23;;;32.47;;
21089;SDS011;10703;51.020;6.128;2022-10-31T05:05:34;63.50;;;29.97;;
21089;SDS011;10703;51.020;6.128;2022-10-31T05:08:01;80.30;;;29.33;;
21089;SDS011;10703;51.020;6.128;2022-10-31T05:10:29;72.50;;;31.33;;
21089;SDS011;10703;51.020;6.128;2022-10-31T05:13:00;65.00;;;28.90;;
21089;SDS011;10703;51.020;6.128;2022-10-31T05:15:28;72.90;;;30.47;;
21089;SDS011;10703;51.020;6.128;2022-10-31T05:17:56;72.47;;;30.13;;
21089;SDS011;10703;51.020;6.128;2022-10-31T05:20:24;68.50;;;28.23;;
21089;SDS011;10703;51.020;6.128;2022-10-31T05:22:53;67.67;;;27.97;;
21089;SDS011;10703;51.020;6.128;2022-10-31T05:25:21;74.63;;;30.77;;
21089;SDS011;10703;51.020;6.128;2022-10-31T05:27:50;58.53;;;26.80;;
21089;SDS011;10703;51.020;6.128;2022-10-31T05:30:18;54.40;;;25.27;;
21089;SDS011;10703;51.020;6.128;2022-10-31T05:32:48;58.00;;;25.47;;
21089;SDS011;10703;51.020;6.128;2022-10-31T05:35:20;54.60;;;25.60;;
21089;SDS011;10703;51.020;6.128;2022-10-31T05:37:48;51.13;;;22.80;;
21089;SDS011;10703;51.020;6.128;2022-10-31T05:40:16;60.30;;;24.33;;
21089;SDS011;10703;51.020;6.128;2022-10-31T05:42:44;52.57;;;22.37;;
21089;SDS011;10703;51.020;6.128;2022-10-31T05:45:12;42.87;;;21.63;;
21089;SDS011;10703;51.020;6.128;2022-10-31T05:47:41;47.00;;;21.80;;
21089;SDS011;10703;51.020;6.128;2022-10-31T05:50:08;45.60;;;20.97;;
21089;SDS011;10703;51.020;6.128;2022-10-31T05:52:35;52.80;;;21.43;;
21089;SDS011;10703;51.020;6.128;2022-10-31T05:55:02;49.73;;;21.80;;
21089;SDS011;10703;51.020;6.128;2022-10-31T05:57:31;42.77;;;20.93;;
21089;SDS011;10703;51.020;6.128;2022-10-31T05:59:58;46.63;;;20.23;;
21089;SDS011;10703;51.020;6.128;2022-10-31T06:02:25;46.70;;;20.33;;
21089;SDS011;10703;51.020;6.128;2022-10-31T06:04:53;50.27;;;20.60;;
21089;SDS011;10703;51.020;6.128;2022-10-31T06:07:19;42.47;;;20.80;;
21089;SDS011;10703;51.020;6.128;2022-10-31T06:09:46;39.73;;;19.47;;
21089;SDS011;10703;51.020;6.128;2022-10-31T06:12:13;46.07;;;20.20;;
21089;SDS011;10703;51.020;6.128;2022-10-31T06:14:39;53.73;;;19.83;;
21089;SDS011;10703;51.020;6.128;2022-10-31T06:17:06;49.03;;;20.30;;
21089;SDS011;10703;51.020;6.128;2022-10-31T06:19:32;46.93;;;20.37;;
21089;SDS011;10703;51.020;6.128;2022-10-31T06:21:59;44.67;;;20.73;;
21089;SDS011;10703;51.020;6.128;2022-10-31T06:24:25;47.87;;;22.00;;
21089;SDS011;10703;51.020;6.128;2022-10-31T06:26:52;50.37;;;21.80;;
21089;SDS011;10703;51.020;6.128;2022-10-31T06:29:18;49.73;;;21.03;;
21089;SDS011;10703;51.020;6.128;2022-10-31T06:31:45;48.73;;;20.03;;
21089;SDS011;10703;51.020;6.128;2022-10-31T06:34:11;45.47;;;20.67;;
21089;SDS011;10703;51.020;6.128;2022-10-31T06:36:38;45.37;;;19.50;;
21089;SDS011;10703;51.020;6.128;2022-10-31T06:39:05;40.80;;;19.67;;
21089;SDS011;10703;51.020;6.128;2022-10-31T06:41:31;46.83;;;18.73;;
21089;SDS011;10703;51.020;6.128;2022-10-31T06:43:58;45.97;;;19.13;;
21089;SDS011;10703;51.020;6.128;2022-10-31T06:46:31;41.67;;;18.40;;
21089;SDS011;10703;51.020;6.128;2022-10-31T06:48:58;52.50;;;18.47;;
21089;SDS011;10703;51.020;6.128;2022-10-31T06:51:24;43.80;;;17.27;;
21089;SDS011;10703;51.020;6.128;2022-10-31T06:53:51;43.40;;;16.53;;
21089;SDS011;10703;51.020;6.128;2022-10-31T06:56:17;43.50;;;16.90;;
21089;SDS011;10703;51.020;6.128;2022-10-31T06:58:44;45.40;;;16.57;;
21089;SDS011;10703;51.020;6.128;2022-10-31T07:01:11;52.83;;;18.80;;
21089;SDS011;10703;51.020;6.128;2022-10-31T07:03:37;46.97;;;19.17;;
21089;SDS011;10703;51.020;6.128;2022-10-31T07:06:04;48.27;;;18.67;;
21089;SDS011;10703;51.020;6.128;2022-10-31T07:08:31;51.10;;;18.37;;
21089;SDS011;10703;51.020;6.128;2022-10-31T07:10:57;50.50;;;17.50;;
21089;SDS011;10703;51.020;6.128;2022-10-31T07:13:24;43.10;;;18.13;;
21089;SDS011;10703;51.020;6.128;2022-10-31T07:15:52;49.67;;;18.67;;
21089;SDS011;10703;51.020;6.128;2022-10-31T07:18:20;51.13;;;19.17;;
21089;SDS011;10703;51.020;6.128;2022-10-31T07:20:47;42.73;;;18.70;;
21089;SDS011;10703;51.020;6.128;2022-10-31T07:23:14;54.17;;;20.23;;
21089;SDS011;10703;51.020;6.128;2022-10-31T07:25:40;58.37;;;20.03;;
21089;SDS011;10703;51.020;6.128;2022-10-31T07:28:08;50.60;;;20.77;;
21089;SDS011;10703;51.020;6.128;2022-10-31T07:30:35;48.03;;;20.97;;
21089;SDS011;10703;51.020;6.128;2022-10-31T07:33:03;56.33;;;20.80;;
21089;SDS011;10703;51.020;6.128;2022-10-31T07:35:30;53.47;;;21.27;;
21089;SDS011;10703;51.020;6.128;2022-10-31T07:38:05;56.07;;;20.67;;
21089;SDS011;10703;51.020;6.128;2022-10-31T07:40:33;47.97;;;20.77;;
21089;SDS011;10703;51.020;6.128;2022-10-31T07:42:59;55.93;;;21.20;;
21089;SDS011;10703;51.020;6.128;2022-10-31T07:45:26;55.70;;;21.67;;
21089;SDS011;10703;51.020;6.128;2022-10-31T07:47:52;61.23;;;21.63;;
21089;SDS011;10703;51.020;6.128;2022-10-31T07:50:20;55.50;;;22.27;;
21089;SDS011;10703;51.020;6.128;2022-10-31T07:53:01;51.40;;;21.17;;
21089;SDS011;10703;51.020;6.128;2022-10-31T07:55:46;50.07;;;21.77;;
21089;SDS011;10703;51.020;6.128;2022-10-31T07:58:13;50.43;;;21.67;;
21089;SDS011;10703;51.020;6.128;2022-10-31T08:00:42;56.83;;;22.80;;
21089;SDS011;10703;51.020;6.128;2022-10-31T08:03:12;59.33;;;22.33;;
21089;SDS011;10703;51.020;6.128;2022-10-31T08:05:40;55.60;;;22.53;;
21089;SDS011;10703;51.020;6.128;2022-10-31T08:08:08;53.50;;;21.73;;
21089;SDS011;10703;51.020;6.128;2022-10-31T08:10:35;49.83;;;20.53;;
21089;SDS011;10703;51.020;6.128;2022-10-31T08:13:09;45.67;;;20.83;;
21089;SDS011;10703;51.020;6.128;2022-10-31T08:15:37;45.77;;;19.90;;
21089;SDS011;10703;51.020;6.128;2022-10-31T08:18:11;46.07;;;20.43;;
21089;SDS011;10703;51.020;6.128;2022-10-31T08:20:39;39.20;;;19.17;;
21089;SDS011;10703;51.020;6.128;2022-10-31T08:23:06;38.57;;;18.43;;
21089;SDS011;10703;51.020;6.128;2022-10-31T08:25:34;41.07;;;18.53;;
21089;SDS011;10703;51.020;6.128;2022-10-31T08:28:04;47.47;;;18.80;;
21089;SDS011;10703;51.020;6.128;2022-10-31T08:30:32;30.83;;;18.30;;
21089;SDS011;10703;51.020;6.128;2022-10-31T08:33:04;33.23;;;17.73;;
21089;SDS011;10703;51.020;6.128;2022-10-31T08:35:34;40.70;;;18.37;;
21089;SDS011;10703;51.020;6.128;2022-10-31T08:38:01;32.10;;;17.83;;
21089;SDS011;10703;51.020;6.128;2022-10-31T08:40:29;36.37;;;16.40;;
21089;SDS011;10703;51.020;6.128;2022-10-31T08:43:01;38.83;;;17.47;;
21089;SDS011;10703;51.020;6.128;2022-10-31T08:45:32;32.50;;;16.63;;
21089;SDS011;10703;51.020;6.128;2022-10-31T08:48:00;29.80;;;15.57;;
21089;SDS011;10703;51.020;6.128;2022-10-31T08:50:29;37.00;;;16.90;;
21089;SDS011;10703;51.020;6.128;2022-10-31T08:53:00;31.70;;;16.53;;
21089;SDS011;10703;51.020;6.128;2022-10-31T08:55:36;33.57;;;15.77;;
21089;SDS011;10703;51.020;6.128;2022-10-31T08:58:05;36.30;;;15.30;;
21089;SDS011;10703;51.020;6.128;2022-10-31T09:00:33;42.63;;;15.70;;
21089;SDS011;10703;51.020;6.128;2022-10-31T09:03:01;28.37;;;14.43;;
21089;SDS011;10703;51.020;6.128;2022-10-31T09:05:30;30.37;;;14.83;;
21089;SDS011;10703;51.020;6.128;2022-10-31T09:07:57;26.43;;;13.10;;
21089;SDS011;10703;51.020;6.128;2022-10-31T09:10:26;26.57;;;12.90;;
21089;SDS011;10703;51.020;6.128;2022-10-31T09:12:57;26.13;;;13.23;;
21089;SDS011;10703;51.020;6.128;2022-10-31T09:15:25;30.23;;;13.10;;
21089;SDS011;10703;51.020;6.128;2022-10-31T09:17:53;27.80;;;13.20;;
21089;SDS011;10703;51.020;6.128;2022-10-31T09:20:20;27.97;;;12.53;;
21089;SDS011;10703;51.020;6.128;2022-10-31T09:22:47;19.53;;;11.90;;
21089;SDS011;10703;51.020;6.128;2022-10-31T09:25:13;22.10;;;11.50;;
21089;SDS011;10703;51.020;6.128;2022-10-31T09:27:40;24.17;;;12.33;;
21089;SDS011;10703;51.020;6.128;2022-10-31T09:30:07;20.43;;;11.23;;
21089;SDS011;10703;51.020;6.128;2022-10-31T09:32:34;21.60;;;11.77;;
21089;SDS011;10703;51.020;6.128;2022-10-31T09:35:00;33.13;;;10.90;;
21089;SDS011;10703;51.020;6.128;2022-10-31T09:37:27;27.90;;;11.37;;
21089;SDS011;10703;51.020;6.128;2022-10-31T09:39:54;23.37;;;11.80;;
21089;SDS011;10703;51.020;6.128;2022-10-31T09:44:59;27.50;;;10.83;;
21089;SDS011;10703;51.020;6.128;2022-10-31T09:47:47;22.90;;;11.17;;
21089;SDS011;10703;51.020;6.128;2022-10-31T09:50:25;32.87;;;12.73;;
21089;SDS011;10703;51.020;6.128;2022-10-31T09:52:59;24.73;;;11.13;;
21089;SDS011;10703;51.020;6.128;2022-10-31T09:55:34;21.10;;;10.73;;
21089;SDS011;10703;51.020;6.128;2022-10-31T09:58:03;27.10;;;10.73;;
21089;SDS011;10703;51.020;6.128;2022-10-31T10:00:30;33.60;;;10.97;;
21089;SDS011;10703;51.020;6.128;2022-10-31T10:06:29;23.73;;;10.47;;
21089;SDS011;10703;51.020;6.128;2022-10-31T10:08:37;22.63;;;10.53;;
21089;SDS011;10703;51.020;6.128;2022-10-31T10:14:12;23.67;;;11.00;;
21089;SDS011;10703;51.020;6.128;2022-10-31T10:19:32;23.87;;;11.53;;
21089;SDS011;10703;51.020;6.128;2022-10-31T10:22:19;25.03;;;10.83;;
21089;SDS011;10703;51.020;6.128;2022-10-31T10:25:03;25.63;;;11.03;;
21089;SDS011;10703;51.020;6.128;2022-10-31T10:32:48;22.20;;;9.83;;
21089;SDS011;10703;51.020;6.128;2022-10-31T10:35:24;29.23;;;10.40;;
21089;SDS011;10703;51.020;6.128;2022-10-31T10:38:15;25.70;;;10.13;;
21089;SDS011;10703;51.020;6.128;2022-10-31T10:40:52;23.30;;;9.30;;
21089;SDS011;10703;51.020;6.128;2022-10-31T10:43:21;19.47;;;8.80;;
21089;SDS011;10703;51.020;6.128;2022-10-31T10:49:11;24.37;;;8.73;;
21089;SDS011;10703;51.020;6.128;2022-10-31T10:54:55;20.93;;;9.13;;
21089;SDS011;10703;51.020;6.128;2022-10-31T11:03:13;20.63;;;8.40;;
21089;SDS011;10703;51.020;6.128;2022-10-31T11:05:48;16.07;;;7.33;;
21089;SDS011;10703;51.020;6.128;2022-10-31T11:08:26;19.80;;;7.77;;
21089;SDS011;10703;51.020;6.128;2022-10-31T11:11:27;21.60;;;7.37;;
21089;SDS011;10703;51.020;6.128;2022-10-31T11:13:54;13.27;;;7.97;;
21089;SDS011;10703;51.020;6.128;2022-10-31T11:16:33;16.83;;;7.30;;
21089;SDS011;10703;51.020;6.128;2022-10-31T11:19:07;21.20;;;7.57;;
21089;SDS011;10703;51.020;6.128;2022-10-31T11:21:37;15.90;;;6.87;;
21089;SDS011;10703;51.020;6.128;2022-10-31T11:26:33;14.50;;;6.20;;
21089;SDS011;10703;51.020;6.128;2022-10-31T11:29:01;14.63;;;6.37;;
21089;SDS011;10703;51.020;6.128;2022-10-31T11:31:31;11.60;;;6.20;;
21089;SDS011;10703;51.020;6.128;2022-10-31T11:34:01;20.55;;;6.93;;
21089;SDS011;10703;51.020;6.128;2022-10-31T11:36:30;16.35;;;7.00;;
21089;SDS011;10703;51.020;6.128;2022-10-31T11:39:00;19.73;;;6.82;;
21089;SDS011;10703;51.020;6.128;2022-10-31T11:41:30;16.15;;;6.20;;
21089;SDS011;10703;51.020;6.128;2022-10-31T11:44:03;15.85;;;6.40;;
21089;SDS011;10703;51.020;6.128;2022-10-31T11:46:40;17.52;;;7.40;;
21089;SDS011;10703;51.020;6.128;2022-10-31T11:49:36;16.92;;;6.82;;
21089;SDS011;10703;51.020;6.128;2022-10-31T11:52:05;18.73;;;6.60;;
21089;SDS011;10703;51.020;6.128;2022-10-31T11:55:00;23.85;;;6.40;;
21089;SDS011;10703;51.020;6.128;2022-10-31T12:00:25;17.60;;;7.03;;
21089;SDS011;10703;51.020;6.128;2022-10-31T12:05:54;18.80;;;6.72;;
21089;SDS011;10703;51.020;6.128;2022-10-31T12:08:29;17.98;;;6.57;;
21089;SDS011;10703;51.020;6.128;2022-10-31T12:11:20;16.05;;;7.13;;
21089;SDS011;10703;51.020;6.128;2022-10-31T12:16:56;15.75;;;6.28;;
21089;SDS011;10703;51.020;6.128;2022-10-31T12:33:51;17.33;;;5.93;;
21089;SDS011;10703;51.020;6.128;2022-10-31T12:36:41;15.35;;;4.97;;
21089;SDS011;10703;51.020;6.128;2022-10-31T12:39:30;16.10;;;6.20;;
21089;SDS011;10703;51.020;6.128;2022-10-31T12:48:30;14.88;;;5.80;;
21089;SDS011;10703;51.020;6.128;2022-10-31T12:51:26;15.20;;;5.53;;
21089;SDS011;10703;51.020;6.128;2022-10-31T12:54:31;12.98;;;5.60;;
21089;SDS011;10703;51.020;6.128;2022-10-31T12:57:23;13.50;;;5.82;;
21089;SDS011;10703;51.020;6.128;2022-10-31T12:59:57;9.82;;;5.97;;
21089;SDS011;10703;51.020;6.128;2022-10-31T13:02:34;16.45;;;5.78;;
21089;SDS011;10703;51.020;6.128;2022-10-31T13:05:11;12.13;;;5.35;;
21089;SDS011;10703;51.020;6.128;2022-10-31T13:07:45;14.40;;;5.90;;
21089;SDS011;10703;51.020;6.128;2022-10-31T13:10:32;17.58;;;5.47;;
21089;SDS011;10703;51.020;6.128;2022-10-31T13:13:23;12.07;;;4.90;;
21089;SDS011;10703;51.020;6.128;2022-10-31T13:16:10;14.02;;;5.18;;
21089;SDS011;10703;51.020;6.128;2022-10-31T13:19:00;15.05;;;4.28;;
21089;SDS011;10703;51.020;6.128;2022-10-31T13:21:47;10.90;;;4.88;;
21089;SDS011;10703;51.020;6.128;2022-10-31T13:24:20;17.67;;;5.05;;
21089;SDS011;10703;51.020;6.128;2022-10-31T13:26:55;13.63;;;4.65;;
21089;SDS011;10703;51.020;6.128;2022-10-31T13:29:29;14.40;;;4.88;;
21089;SDS011;10703;51.020;6.128;2022-10-31T13:31:59;9.98;;;4.93;;
21089;SDS011;10703;51.020;6.128;2022-10-31T13:43:05;15.48;;;4.97;;
21089;SDS011;10703;51.020;6.128;2022-10-31T13:45:52;11.23;;;5.47;;
21089;SDS011;10703;51.020;6.128;2022-10-31T13:48:37;12.18;;;4.13;;
21089;SDS011;10703;51.020;6.128;2022-10-31T13:51:06;8.85;;;4.80;;
21089;SDS011;10703;51.020;6.128;2022-10-31T13:53:37;13.93;;;5.18;;
21089;SDS011;10703;51.020;6.128;2022-10-31T13:56:33;16.23;;;4.72;;
21089;SDS011;10703;51.020;6.128;2022-10-31T14:01:35;13.40;;;5.03;;
21089;SDS011;10703;51.020;6.128;2022-10-31T14:04:07;17.40;;;5.10;;
21089;SDS011;10703;51.020;6.128;2022-10-31T14:07:07;13.52;;;4.43;;
21089;SDS011;10703;51.020;6.128;2022-10-31T14:09:40;16.37;;;5.23;;
21089;SDS011;10703;51.020;6.128;2022-10-31T14:15:00;16.05;;;4.80;;
21089;SDS011;10703;51.020;6.128;2022-10-31T14:17:47;16.67;;;5.00;;
21089;SDS011;10703;51.020;6.128;2022-10-31T14:22:44;11.32;;;4.07;;
21089;SDS011;10703;51.020;6.128;2022-10-31T14:25:31;16.33;;;4.70;;
21089;SDS011;10703;51.020;6.128;2022-10-31T14:28:02;12.07;;;3.83;;
21089;SDS011;10703;51.020;6.128;2022-10-31T14:30:55;12.90;;;4.25;;
21089;SDS011;10703;51.020;6.128;2022-10-31T14:33:24;12.57;;;4.13;;
21089;SDS011;10703;51.020;6.128;2022-10-31T14:35:56;9.23;;;3.95;;
21089;SDS011;10703;51.020;6.128;2022-10-31T14:38:47;13.43;;;4.50;;
21089;SDS011;10703;51.020;6.128;2022-10-31T14:42:12;18.20;;;4.80;;
21089;SDS011;10703;51.020;6.128;2022-10-31T14:53:30;14.30;;;4.53;;
21089;SDS011;10703;51.020;6.128;2022-10-31T14:56:02;11.30;;;4.13;;
21089;SDS011;10703;51.020;6.128;2022-10-31T14:58:36;12.82;;;3.92;;
21089;SDS011;10703;51.020;6.128;2022-10-31T15:01:05;14.38;;;4.45;;
21089;SDS011;10703;51.020;6.128;2022-10-31T15:03:34;11.95;;;3.90;;
21089;SDS011;10703;51.020;6.128;2022-10-31T15:06:18;13.48;;;4.47;;
21089;SDS011;10703;51.020;6.128;2022-10-31T15:08:48;11.43;;;4.35;;
21089;SDS011;10703;51.020;6.128;2022-10-31T15:11:20;12.00;;;4.30;;
21089;SDS011;10703;51.020;6.128;2022-10-31T15:13:57;13.40;;;4.80;;
21089;SDS011;10703;51.020;6.128;2022-10-31T15:16:31;9.10;;;4.13;;
21089;SDS011;10703;51.020;6.128;2022-10-31T15:19:05;15.77;;;4.57;;
21089;SDS011;10703;51.020;6.128;2022-10-31T15:21:35;14.35;;;4.60;;
21089;SDS011;10703;51.020;6.128;2022-10-31T15:24:06;11.43;;;4.05;;
21089;SDS011;10703;51.020;6.128;2022-10-31T15:26:38;13.73;;;4.60;;
21089;SDS011;10703;51.020;6.128;2022-10-31T15:29:16;13.57;;;4.22;;
21089;SDS011;10703;51.020;6.128;2022-10-31T15:31:51;18.80;;;4.57;;
21089;SDS011;10703;51.020;6.128;2022-10-31T15:34:39;18.60;;;4.17;;
21089;SDS011;10703;51.020;6.128;2022-10-31T15:37:11;12.63;;;4.10;;
21089;SDS011;10703;51.020;6.128;2022-10-31T15:39:42;10.33;;;4.00;;
21089;SDS011;10703;51.020;6.128;2022-10-31T15:42:29;13.93;;;3.90;;
21089;SDS011;10703;51.020;6.128;2022-10-31T15:45:00;10.87;;;4.47;;
21089;SDS011;10703;51.020;6.128;2022-10-31T15:47:30;18.80;;;4.30;;
21089;SDS011;10703;51.020;6.128;2022-10-31T15:49:59;14.63;;;4.80;;
21089;SDS011;10703;51.020;6.128;2022-10-31T15:52:34;10.07;;;4.80;;
21089;SDS011;10703;51.020;6.128;2022-10-31T15:55:16;15.73;;;4.30;;
21089;SDS011;10703;51.020;6.128;2022-10-31T15:57:48;12.53;;;4.20;;
21089;SDS011;10703;51.020;6.128;2022-10-31T16:03:00;12.97;;;4.50;;
21089;SDS011;10703;51.020;6.128;2022-10-31T16:05:45;12.03;;;4.73;;
21089;SDS011;10703;51.020;6.128;2022-10-31T16:13:33;10.83;;;4.00;;
21089;SDS011;10703;51.020;6.128;2022-10-31T16:16:14;15.03;;;6.20;;
21089;SDS011;10703;51.020;6.128;2022-10-31T16:19:03;14.10;;;4.53;;
21089;SDS011;10703;51.020;6.128;2022-10-31T16:21:32;13.27;;;4.67;;
21089;SDS011;10703;51.020;6.128;2022-10-31T16:24:02;16.80;;;5.50;;
21089;SDS011;10703;51.020;6.128;2022-10-31T16:26:41;13.13;;;4.40;;
21089;SDS011;10703;51.020;6.128;2022-10-31T16:29:23;13.77;;;4.37;;
21089;SDS011;10703;51.020;6.128;2022-10-31T16:31:52;12.33;;;5.33;;
21089;SDS011;10703;51.020;6.128;2022-10-31T16:34:22;12.23;;;5.10;;
21089;SDS011;10703;51.020;6.128;2022-10-31T16:36:52;16.60;;;5.57;;
21089;SDS011;10703;51.020;6.128;2022-10-31T16:39:18;12.97;;;5.10;;
21089;SDS011;10703;51.020;6.128;2022-10-31T16:41:46;12.23;;;5.30;;
21089;SDS011;10703;51.020;6.128;2022-10-31T16:44:25;15.90;;;4.63;;
21089;SDS011;10703;51.020;6.128;2022-10-31T16:47:09;14.40;;;4.83;;
21089;SDS011;10703;51.020;6.128;2022-10-31T16:49:40;13.20;;;5.10;;
21089;SDS011;10703;51.020;6.128;2022-10-31T16:52:07;13.03;;;5.13;;
21089;SDS011;10703;51.020;6.128;2022-10-31T16:54:34;13.20;;;5.47;;
21089;SDS011;10703;51.020;6.128;2022-10-31T16:57:01;20.57;;;5.13;;
21089;SDS011;10703;51.020;6.128;2022-10-31T16:59:29;15.23;;;6.40;;
21089;SDS011;10703;51.020;6.128;2022-10-31T17:01:59;14.23;;;5.57;;